Time;durP1;ratioP1;P1;durP2;ratioP2;P2;SDS_P1;SDS_P2;PMS_P1;PMS_P2;Temp;Humidity;BMP_temperature;BMP_pressure;BME280_temperature;BME280_humidity;BME280_pressure;Samples;Min_cycle;Max_cycle;Signal;HPM_P1;HPM_P2
2023/10/25 00:01:07;;;;;;;9.20;7.22;;;10.00;99.90;;;;;;5038375;28;20036;-57
2023/10/25 00:03:33;;;;;;;9.95;7.88;;;10.00;99.90;;;;;;5039493;28;20095;-56
2023/10/25 00:05:59;;;;;;;11.95;7.25;;;10.00;99.90;;;;;;5040729;28;20647;-56
2023/10/25 00:08:24;;;;;;;12.10;7.82;;;10.00;99.90;;;;;;5039889;28;20021;-56
2023/10/25 00:10:50;;;;;;;9.65;7.88;;;9.90;99.90;;;;;;5039257;28;20032;-56
2023/10/25 00:13:15;;;;;;;10.88;8.27;;;10.00;99.90;;;;;;5043062;28;20422;-56
2023/10/25 00:15:41;;;;;;;10.05;7.80;;;10.00;99.90;;;;;;5041038;28;20033;-56
2023/10/25 00:18:06;;;;;;;10.80;7.97;;;10.00;99.90;;;;;;5041437;28;20037;-56
2023/10/25 00:20:32;;;;;;;10.30;8.18;;;10.00;99.90;;;;;;5038791;28;20030;-56
2023/10/25 00:22:57;;;;;;;8.25;6.82;;;10.00;99.90;;;;;;5041409;28;20029;-56
2023/10/25 00:25:23;;;;;;;9.90;7.32;;;10.00;99.90;;;;;;5038824;28;20017;-56
2023/10/25 00:27:48;;;;;;;11.43;8.38;;;10.00;99.90;;;;;;5042142;28;20017;-56
2023/10/25 00:30:14;;;;;;;8.30;7.28;;;10.00;99.90;;;;;;5040316;28;20475;-57
2023/10/25 00:32:39;;;;;;;9.10;7.82;;;10.00;99.90;;;;;;5039177;28;20029;-56
2023/10/25 00:35:05;;;;;;;14.27;8.98;;;9.90;99.90;;;;;;5039531;28;20021;-56
2023/10/25 00:37:31;;;;;;;11.15;7.88;;;10.00;99.90;;;;;;5043133;28;20048;-57
2023/10/25 00:39:57;;;;;;;11.98;8.05;;;10.00;99.90;;;;;;5050847;28;20537;-56
2023/10/25 00:42:22;;;;;;;13.27;8.45;;;10.00;99.90;;;;;;5050697;28;20033;-56
2023/10/25 00:44:48;;;;;;;11.15;8.95;;;9.90;99.90;;;;;;5050477;28;20021;-56
2023/10/25 00:47:14;;;;;;;15.07;8.75;;;10.00;99.90;;;;;;5050191;28;20547;-57
2023/10/25 00:49:40;;;;;;;17.13;8.55;;;10.00;99.90;;;;;;5050075;28;20025;-57
2023/10/25 00:52:06;;;;;;;13.50;9.50;;;9.90;99.90;;;;;;5050508;28;20039;-57
2023/10/25 00:54:31;;;;;;;9.15;8.18;;;9.90;99.90;;;;;;5049104;28;20029;-57
2023/10/25 00:56:57;;;;;;;12.52;9.02;;;10.00;99.90;;;;;;5050182;28;20032;-57
2023/10/25 00:59:24;;;;;;;17.60;9.02;;;10.00;99.90;;;;;;5048873;28;20031;-57
2023/10/25 01:01:50;;;;;;;12.40;8.93;;;9.90;99.90;;;;;;5050072;28;20021;-56
2023/10/25 01:04:16;;;;;;;12.75;9.85;;;9.90;99.90;;;;;;5050250;28;20017;-56
2023/10/25 01:06:41;;;;;;;15.75;9.60;;;10.00;99.90;;;;;;5048497;28;20102;-56
2023/10/25 01:09:07;;;;;;;13.02;9.52;;;9.90;99.90;;;;;;5050069;28;20031;-56
2023/10/25 01:11:33;;;;;;;11.43;9.45;;;9.90;99.90;;;;;;5048771;28;20421;-56
2023/10/25 01:13:58;;;;;;;13.70;9.32;;;9.90;99.90;;;;;;5050057;28;20051;-57
2023/10/25 01:16:24;;;;;;;18.85;10.23;;;9.90;99.90;;;;;;5049783;28;20049;-56
2023/10/25 01:18:49;;;;;;;15.23;10.50;;;9.90;99.90;;;;;;5049942;28;20032;-56
2023/10/25 01:21:15;;;;;;;14.20;9.48;;;9.90;99.90;;;;;;5048514;28;20517;-56
2023/10/25 01:23:41;;;;;;;15.20;10.07;;;9.90;99.90;;;;;;5049600;28;20556;-57
2023/10/25 01:26:06;;;;;;;13.35;10.65;;;9.90;99.90;;;;;;5049519;28;20017;-56
2023/10/25 01:28:32;;;;;;;15.93;9.70;;;9.90;99.90;;;;;;5049757;28;20053;-56
2023/10/25 01:30:58;;;;;;;12.20;9.35;;;9.90;99.90;;;;;;5049732;28;20482;-56
2023/10/25 01:33:23;;;;;;;13.55;10.32;;;9.90;99.90;;;;;;5049550;28;20037;-56
2023/10/25 01:35:50;;;;;;;14.50;9.93;;;9.90;99.90;;;;;;5049576;28;20163;-56
2023/10/25 01:38:16;;;;;;;15.48;9.45;;;9.90;99.90;;;;;;5049402;28;20025;-56
2023/10/25 01:40:41;;;;;;;18.60;10.88;;;9.90;99.90;;;;;;5048034;28;20094;-56
2023/10/25 01:43:07;;;;;;;16.45;9.13;;;9.90;99.90;;;;;;5049238;28;20048;-56
2023/10/25 01:45:32;;;;;;;15.73;9.75;;;9.90;99.90;;;;;;5049285;28;20033;-56
2023/10/25 01:47:58;;;;;;;15.48;9.68;;;9.90;99.90;;;;;;5049602;28;20025;-57
2023/10/25 01:50:23;;;;;;;16.38;10.07;;;9.90;99.90;;;;;;5049464;28;20426;-57
2023/10/25 01:52:49;;;;;;;12.57;9.02;;;9.80;99.90;;;;;;5049739;28;20029;-57
2023/10/25 01:55:14;;;;;;;15.48;8.77;;;9.80;99.90;;;;;;5048340;28;20033;-56
2023/10/25 01:57:40;;;;;;;12.05;9.20;;;9.90;99.90;;;;;;5049202;28;20052;-56
2023/10/25 02:00:09;;;;;;;11.88;8.85;;;9.90;99.90;;;;;;5049228;28;20056;-55
2023/10/25 02:02:35;;;;;;;12.15;8.95;;;9.90;99.90;;;;;;5048981;28;20519;-55
2023/10/25 02:05:00;;;;;;;20.67;9.80;;;9.90;99.90;;;;;;5048247;28;20024;-56
2023/10/25 02:07:26;;;;;;;13.13;9.15;;;9.90;99.90;;;;;;5049038;28;20032;-56
2023/10/25 02:09:51;;;;;;;16.27;9.40;;;9.90;99.90;;;;;;5049539;28;20371;-56
2023/10/25 02:12:17;;;;;;;14.68;9.38;;;9.90;99.90;;;;;;5048065;28;20052;-57
2023/10/25 02:14:42;;;;;;;14.73;8.90;;;9.90;99.90;;;;;;5049052;28;20040;-56
2023/10/25 02:17:08;;;;;;;14.82;9.98;;;9.80;99.90;;;;;;5048964;28;20025;-56
2023/10/25 02:19:35;;;;;;;11.73;9.13;;;9.80;99.90;;;;;;5049200;28;20485;-56
2023/10/25 02:22:00;;;;;;;14.25;8.82;;;9.80;99.90;;;;;;5049299;28;20386;-56
2023/10/25 02:24:26;;;;;;;12.60;9.50;;;9.90;99.90;;;;;;5049198;28;20021;-57
2023/10/25 02:26:52;;;;;;;16.20;9.60;;;9.80;99.90;;;;;;5047449;28;20036;-57
2023/10/25 02:29:17;;;;;;;13.27;8.98;;;9.80;99.90;;;;;;5049069;28;20027;-57
2023/10/25 02:31:43;;;;;;;35.83;17.90;;;9.80;99.90;;;;;;5049344;28;20022;-57
2023/10/25 02:34:08;;;;;;;20.63;12.82;;;9.80;99.90;;;;;;5049066;28;20025;-56
2023/10/25 02:36:35;;;;;;;31.65;16.15;;;9.80;99.90;;;;;;5048834;28;20025;-57
2023/10/25 02:39:01;;;;;;;23.95;13.68;;;9.80;99.90;;;;;;5048901;28;20059;-57
2023/10/25 02:41:26;;;;;;;17.45;10.27;;;9.80;99.90;;;;;;5049051;28;20025;-57
2023/10/25 02:43:53;;;;;;;22.92;11.65;;;9.80;99.90;;;;;;5048550;28;20346;-57
2023/10/25 02:46:19;;;;;;;16.77;10.20;;;9.80;99.90;;;;;;5048996;28;20031;-57
2023/10/25 02:48:45;;;;;;;14.98;9.85;;;9.80;99.90;;;;;;5048780;28;20047;-57
2023/10/25 02:51:10;;;;;;;12.80;8.70;;;9.80;99.90;;;;;;5046220;28;20040;-57
2023/10/25 02:53:36;;;;;;;11.38;8.82;;;9.80;99.90;;;;;;5048549;28;20446;-56
2023/10/25 02:56:06;;;;;;;15.98;8.88;;;9.80;99.90;;;;;;5047218;28;20035;-56
2023/10/25 02:58:32;;;;;;;12.35;8.70;;;9.80;99.90;;;;;;5048744;28;20053;-57
2023/10/25 03:00:58;;;;;;;15.43;9.88;;;9.80;99.90;;;;;;5048653;28;20456;-56
2023/10/25 03:03:28;;;;;;;14.38;9.07;;;9.80;99.90;;;;;;5048694;28;20082;-56
2023/10/25 03:05:53;;;;;;;11.55;8.80;;;9.80;99.90;;;;;;5048495;28;20021;-56
2023/10/25 03:08:19;;;;;;;11.77;8.68;;;9.70;99.90;;;;;;5048949;28;20028;-56
2023/10/25 03:10:45;;;;;;;12.65;8.63;;;9.80;99.90;;;;;;5049302;28;20021;-56
2023/10/25 03:13:11;;;;;;;14.80;8.20;;;9.80;99.90;;;;;;5051491;28;20029;-56
2023/10/25 03:15:36;;;;;;;14.13;8.95;;;9.80;99.90;;;;;;5052174;28;20100;-56
2023/10/25 03:18:02;;;;;;;11.82;8.85;;;9.80;99.90;;;;;;5052228;28;20371;-56
2023/10/25 03:20:28;;;;;;;11.38;8.32;;;9.80;99.90;;;;;;5052321;28;20029;-56
2023/10/25 03:22:54;;;;;;;12.80;8.85;;;9.80;99.90;;;;;;5051913;28;20041;-56
2023/10/25 03:25:20;;;;;;;9.20;7.22;;;9.90;99.90;;;;;;5052211;28;20021;-56
2023/10/25 03:27:46;;;;;;;11.15;8.38;;;9.80;99.90;;;;;;5051779;28;20032;-56
2023/10/25 03:30:12;;;;;;;15.25;8.95;;;9.90;99.90;;;;;;5051287;28;20389;-56
2023/10/25 03:32:37;;;;;;;11.10;7.95;;;9.80;99.90;;;;;;5052426;28;20040;-56
2023/10/25 03:35:04;;;;;;;14.30;8.82;;;9.90;99.90;;;;;;5052111;28;20036;-56
2023/10/25 03:37:29;;;;;;;17.15;8.75;;;9.80;99.90;;;;;;5051760;28;20021;-56
2023/10/25 03:39:55;;;;;;;13.35;7.80;;;9.90;99.90;;;;;;5052056;28;20033;-56
2023/10/25 03:42:20;;;;;;;10.32;8.02;;;9.80;99.90;;;;;;5051707;28;20151;-56
2023/10/25 03:44:46;;;;;;;13.68;8.57;;;9.80;99.90;;;;;;5051869;28;20044;-56
2023/10/25 03:47:11;;;;;;;16.05;9.07;;;9.80;99.90;;;;;;5051320;28;20513;-56
2023/10/25 03:49:37;;;;;;;17.83;9.85;;;9.80;99.90;;;;;;5051466;28;20442;-56
2023/10/25 03:52:03;;;;;;;12.82;8.70;;;9.80;99.90;;;;;;5051545;28;20036;-55
2023/10/25 03:54:28;;;;;;;13.55;8.40;;;9.80;99.90;;;;;;5051717;28;20036;-56
2023/10/25 03:56:54;;;;;;;14.27;8.63;;;9.80;99.90;;;;;;5051510;28;20206;-55
2023/10/25 03:59:19;;;;;;;18.10;9.60;;;9.80;99.90;;;;;;5046786;28;20029;-56
2023/10/25 04:01:45;;;;;;;21.92;10.45;;;9.80;99.90;;;;;;5048559;28;20141;-55
2023/10/25 04:04:11;;;;;;;17.05;9.85;;;9.70;99.90;;;;;;5039306;28;20030;-56
2023/10/25 04:06:37;;;;;;;16.65;8.60;;;9.70;99.90;;;;;;5039040;28;20024;-56
2023/10/25 04:09:03;;;;;;;14.32;8.35;;;9.70;99.90;;;;;;5039376;28;20258;-56
2023/10/25 04:11:28;;;;;;;17.00;10.25;;;9.70;99.90;;;;;;5039660;28;20028;-56
2023/10/25 04:13:54;;;;;;;13.50;8.95;;;9.70;99.90;;;;;;5039284;28;20029;-56
2023/10/25 04:16:19;;;;;;;17.13;9.38;;;9.60;99.90;;;;;;5039839;28;20025;-56
2023/10/25 04:18:45;;;;;;;15.65;9.10;;;9.70;99.90;;;;;;5039048;28;20379;-56
2023/10/25 04:21:12;;;;;;;21.85;9.95;;;9.70;99.90;;;;;;5040599;28;20033;-56
2023/10/25 04:23:38;;;;;;;21.33;10.13;;;9.70;99.90;;;;;;5037392;28;20157;-56
2023/10/25 04:26:14;;;;;;;18.08;10.35;;;9.70;99.90;;;;;;5044134;28;20111;-56
2023/10/25 04:28:41;;;;;;;20.15;10.57;;;9.70;99.90;;;;;;5051161;28;20024;-55
2023/10/25 04:31:07;;;;;;;16.58;10.68;;;9.70;99.90;;;;;;5051270;28;20108;-56
2023/10/25 04:33:33;;;;;;;23.75;12.45;;;9.70;99.90;;;;;;5050949;28;20086;-56
2023/10/25 04:35:59;;;;;;;18.77;11.65;;;9.70;99.90;;;;;;5051139;28;20045;-56
2023/10/25 04:38:24;;;;;;;16.88;11.18;;;9.70;99.90;;;;;;5049314;28;20382;-55
2023/10/25 04:40:53;;;;;;;14.45;9.73;;;9.70;99.90;;;;;;5042735;28;20044;-56
2023/10/25 04:43:19;;;;;;;19.52;10.63;;;9.70;99.90;;;;;;5050648;28;20021;-56
2023/10/25 04:45:45;;;;;;;18.65;9.80;;;9.70;99.90;;;;;;5050464;28;20509;-56
2023/10/25 04:48:10;;;;;;;13.85;9.50;;;9.70;99.90;;;;;;5050537;28;20029;-55
2023/10/25 04:50:37;;;;;;;11.00;8.05;;;9.70;99.90;;;;;;5050468;28;20474;-55
2023/10/25 04:53:04;;;;;;;13.88;8.48;;;9.70;99.90;;;;;;5050697;28;20035;-55
2023/10/25 04:55:36;;;;;;;18.17;8.48;;;9.80;99.90;;;;;;5050510;28;20025;-56
2023/10/25 04:58:03;;;;;;;20.55;8.80;;;9.70;99.90;;;;;;5050257;28;20479;-56
2023/10/25 05:00:29;;;;;;;15.57;10.43;;;9.70;99.90;;;;;;5045890;28;20052;-56
2023/10/25 05:02:56;;;;;;;15.55;9.38;;;9.70;99.90;;;;;;5042675;28;20047;-55
2023/10/25 05:05:21;;;;;;;17.00;9.23;;;9.70;99.90;;;;;;5048689;28;20049;-56
2023/10/25 05:07:48;;;;;;;14.52;8.70;;;9.70;99.90;;;;;;5048448;28;20024;-56
2023/10/25 05:10:14;;;;;;;12.90;8.73;;;9.70;99.90;;;;;;5044162;28;20059;-55
2023/10/25 05:12:41;;;;;;;12.25;8.25;;;9.60;99.90;;;;;;5047341;28;20052;-55
2023/10/25 05:15:11;;;;;;;14.38;8.77;;;9.60;99.90;;;;;;5048547;28;20320;-56
2023/10/25 05:17:41;;;;;;;17.40;9.77;;;9.60;99.90;;;;;;5049521;28;20367;-56
2023/10/25 05:20:08;;;;;;;17.73;10.02;;;9.60;99.90;;;;;;5050064;28;20486;-56
2023/10/25 05:22:36;;;;;;;12.55;8.50;;;9.60;99.90;;;;;;5048953;28;20037;-56
2023/10/25 05:25:07;;;;;;;13.95;9.00;;;9.60;99.90;;;;;;5049652;28;20025;-56
2023/10/25 05:27:33;;;;;;;12.30;8.38;;;9.60;99.90;;;;;;5048150;28;20513;-56
2023/10/25 05:30:03;;;;;;;10.60;8.10;;;9.50;99.90;;;;;;5049826;28;20052;-56
2023/10/25 05:32:32;;;;;;;13.70;9.20;;;9.50;99.90;;;;;;5049610;28;20367;-56
2023/10/25 05:35:00;;;;;;;19.67;9.53;;;9.50;99.90;;;;;;5049419;28;20025;-56
2023/10/25 05:37:26;;;;;;;15.48;9.77;;;9.50;99.90;;;;;;5049411;28;20429;-56
2023/10/25 05:39:52;;;;;;;18.45;10.50;;;9.40;99.90;;;;;;5049229;28;20594;-56
2023/10/25 05:42:19;;;;;;;14.07;9.35;;;9.40;99.90;;;;;;5049624;28;20108;-56
2023/10/25 05:44:51;;;;;;;12.32;8.57;;;9.50;99.90;;;;;;5049269;28;20041;-57
2023/10/25 05:47:17;;;;;;;13.27;9.23;;;9.50;99.90;;;;;;5049283;28;20027;-56
2023/10/25 05:49:43;;;;;;;19.58;11.02;;;9.50;99.90;;;;;;5049639;28;20044;-56
2023/10/25 05:52:10;;;;;;;16.50;9.93;;;9.50;99.90;;;;;;5049429;28;20037;-56
2023/10/25 05:54:37;;;;;;;15.32;9.40;;;9.40;99.90;;;;;;5047670;28;20390;-56
2023/10/25 05:57:04;;;;;;;14.57;9.90;;;9.50;99.90;;;;;;5047629;28;20025;-56
2023/10/25 05:59:30;;;;;;;11.77;7.85;;;9.50;99.90;;;;;;5048986;28;20086;-57
2023/10/25 06:02:17;;;;;;;15.55;9.15;;;9.50;99.90;;;;;;5048119;28;20408;-56
2023/10/25 06:04:43;;;;;;;12.73;8.95;;;9.40;99.90;;;;;;5049152;28;20024;-56
2023/10/25 06:07:10;;;;;;;12.65;8.63;;;9.40;99.90;;;;;;5048631;28;20021;-56
2023/10/25 06:09:37;;;;;;;12.68;8.82;;;9.40;99.90;;;;;;5049208;28;20017;-56
2023/10/25 06:12:03;;;;;;;17.42;10.18;;;9.40;99.90;;;;;;5049020;28;20025;-56
2023/10/25 06:14:29;;;;;;;13.45;9.32;;;9.40;99.90;;;;;;5048847;28;20021;-56
2023/10/25 06:16:56;;;;;;;14.60;9.18;;;9.40;99.90;;;;;;5049239;28;20035;-56
2023/10/25 06:19:22;;;;;;;12.45;8.60;;;9.40;99.90;;;;;;5049104;28;20100;-56
2023/10/25 06:21:47;;;;;;;15.05;9.25;;;9.40;99.90;;;;;;5049039;28;20104;-56
2023/10/25 06:24:13;;;;;;;12.55;9.45;;;9.40;99.90;;;;;;5048714;28;20032;-57
2023/10/25 06:26:38;;;;;;;15.63;10.25;;;9.30;99.90;;;;;;5047346;28;20110;-57
2023/10/25 06:29:04;;;;;;;11.55;8.05;;;9.40;99.90;;;;;;5047433;28;20033;-56
2023/10/25 06:31:29;;;;;;;11.93;7.65;;;9.40;99.90;;;;;;5042187;28;20032;-56
2023/10/25 06:33:55;;;;;;;11.48;8.20;;;9.40;99.90;;;;;;5040783;28;20335;-56
2023/10/25 06:36:20;;;;;;;9.00;7.00;;;9.30;99.90;;;;;;5040541;28;20040;-56
2023/10/25 06:38:46;;;;;;;10.02;7.30;;;9.30;99.90;;;;;;5041190;28;20036;-56
2023/10/25 06:41:19;;;;;;;10.90;7.95;;;9.30;99.90;;;;;;5039613;28;20112;-56
2023/10/25 06:43:45;;;;;;;12.38;7.20;;;9.20;99.90;;;;;;5041294;28;20032;-56
2023/10/25 06:46:14;;;;;;;11.77;7.97;;;9.30;99.90;;;;;;5039179;28;20129;-56
2023/10/25 06:48:39;;;;;;;13.82;7.63;;;9.30;99.90;;;;;;5049060;28;20029;-57
2023/10/25 06:51:06;;;;;;;14.73;9.07;;;9.30;99.90;;;;;;5052414;28;20025;-56
2023/10/25 06:53:32;;;;;;;12.65;8.35;;;9.30;99.90;;;;;;5053024;28;20040;-56
2023/10/25 06:55:58;;;;;;;19.95;9.40;;;9.20;99.90;;;;;;5052430;28;20425;-56
2023/10/25 06:58:24;;;;;;;9.73;6.82;;;9.20;99.90;;;;;;5052594;28;20406;-56
2023/10/25 07:00:50;;;;;;;10.60;7.65;;;9.20;99.90;;;;;;5052550;28;20033;-56
2023/10/25 07:03:20;;;;;;;14.05;7.10;;;9.20;99.90;;;;;;5052363;28;20409;-57
2023/10/25 07:05:46;;;;;;;16.33;7.95;;;9.20;99.90;;;;;;5051102;28;20021;-56
2023/10/25 07:08:12;;;;;;;13.15;6.70;;;9.10;99.90;;;;;;5043111;28;20029;-56
2023/10/25 07:10:38;;;;;;;14.25;6.88;;;9.20;99.90;;;;;;5040305;28;20486;-56
2023/10/25 07:13:03;;;;;;;8.60;5.97;;;9.20;99.90;;;;;;5040592;28;20030;-56
2023/10/25 07:15:31;;;;;;;9.00;6.78;;;9.20;99.90;;;;;;5041597;28;20029;-56
2023/10/25 07:17:56;;;;;;;14.85;7.03;;;9.30;99.90;;;;;;5040430;28;20028;-56
2023/10/25 07:20:22;;;;;;;11.40;6.45;;;9.20;99.90;;;;;;5041375;28;20039;-57
2023/10/25 07:22:48;;;;;;;10.77;6.65;;;9.30;99.90;;;;;;5047595;28;20168;-57
2023/10/25 07:25:13;;;;;;;9.38;7.05;;;9.30;99.90;;;;;;5042051;28;20416;-57
2023/10/25 07:27:39;;;;;;;9.63;6.57;;;9.30;99.90;;;;;;5041685;28;20033;-57
2023/10/25 07:30:05;;;;;;;12.15;5.95;;;9.30;99.90;;;;;;5051619;28;20032;-57
2023/10/25 07:32:32;;;;;;;12.23;5.88;;;9.30;99.90;;;;;;5051613;28;20411;-57
2023/10/25 07:34:57;;;;;;;9.70;6.50;;;9.40;99.90;;;;;;5046239;28;20139;-57
2023/10/25 07:37:23;;;;;;;9.35;6.25;;;9.50;99.90;;;;;;5042977;28;20021;-57
2023/10/25 07:39:48;;;;;;;7.60;5.22;;;9.50;99.90;;;;;;5039758;28;20124;-57
2023/10/25 07:42:14;;;;;;;16.17;6.47;;;9.60;99.90;;;;;;5049102;28;20466;-57
2023/10/25 07:44:39;;;;;;;13.20;6.28;;;9.70;99.90;;;;;;5042760;28;20014;-57
2023/10/25 07:47:05;;;;;;;12.25;5.70;;;9.80;99.90;;;;;;5039529;28;20029;-57
2023/10/25 07:49:36;;;;;;;13.80;5.63;;;9.80;99.90;;;;;;5044016;28;20025;-57
2023/10/25 07:52:03;;;;;;;14.25;6.35;;;9.90;99.90;;;;;;5041192;28;20499;-57
2023/10/25 07:54:29;;;;;;;10.57;5.15;;;10.00;99.90;;;;;;5042070;28;20524;-57
2023/10/25 07:56:54;;;;;;;7.00;5.20;;;10.10;99.90;;;;;;5040281;28;20109;-57
2023/10/25 07:59:20;;;;;;;8.85;5.00;;;10.20;99.90;;;;;;5041221;28;20355;-57
2023/10/25 08:01:46;;;;;;;6.82;4.53;;;10.20;99.90;;;;;;5039394;28;20384;-57
2023/10/25 08:04:11;;;;;;;7.80;4.22;;;10.30;99.90;;;;;;5040426;28;20518;-57
2023/10/25 08:06:37;;;;;;;10.50;4.38;;;10.30;99.90;;;;;;5039890;28;20475;-57
2023/10/25 08:09:02;;;;;;;11.13;4.13;;;10.40;99.90;;;;;;5039609;28;20075;-57
2023/10/25 08:11:28;;;;;;;6.85;4.35;;;10.40;99.90;;;;;;5040575;28;20615;-57
2023/10/25 08:13:53;;;;;;;9.15;4.07;;;10.50;99.90;;;;;;5040612;28;20037;-57
2023/10/25 08:16:19;;;;;;;10.07;4.20;;;10.60;99.90;;;;;;5046133;28;20028;-58
2023/10/25 08:18:44;;;;;;;6.18;3.65;;;10.60;99.90;;;;;;5044102;28;20060;-57
2023/10/25 08:21:14;;;;;;;8.57;3.72;;;10.70;99.90;;;;;;5042552;28;20021;-57
2023/10/25 08:23:40;;;;;;;4.97;3.28;;;10.70;99.90;;;;;;5038045;28;20025;-57
2023/10/25 08:26:05;;;;;;;5.50;4.35;;;10.70;99.90;;;;;;5038839;28;20037;-57
2023/10/25 08:28:31;;;;;;;11.38;4.22;;;10.80;99.90;;;;;;5038478;28;20029;-57
2023/10/25 08:30:57;;;;;;;9.57;3.83;;;10.80;99.90;;;;;;5037643;28;20029;-57
2023/10/25 08:33:22;;;;;;;12.52;3.88;;;10.90;99.90;;;;;;5039192;28;20025;-57
2023/10/25 08:35:48;;;;;;;7.68;3.67;;;11.00;99.90;;;;;;5041904;28;20505;-57
2023/10/25 08:38:14;;;;;;;10.07;3.95;;;11.00;99.90;;;;;;5050566;28;20083;-57
2023/10/25 08:40:40;;;;;;;11.32;3.88;;;11.10;99.90;;;;;;5050677;28;20032;-57
2023/10/25 08:43:06;;;;;;;5.03;3.60;;;11.20;99.90;;;;;;5050609;28;20032;-57
2023/10/25 08:45:34;;;;;;;8.43;3.85;;;11.20;99.90;;;;;;5050751;28;20474;-57
2023/10/25 08:48:01;;;;;;;18.02;3.88;;;11.30;99.90;;;;;;5050604;28;20021;-58
2023/10/25 08:50:27;;;;;;;9.95;3.30;;;11.40;99.90;;;;;;5049358;28;20078;-58
2023/10/25 08:52:53;;;;;;;8.63;3.83;;;11.50;99.90;;;;;;5047187;28;20025;-57
2023/10/25 08:55:19;;;;;;;7.70;3.80;;;11.60;99.90;;;;;;5039218;28;20170;-58
2023/10/25 08:57:45;;;;;;;8.35;3.20;;;11.70;99.90;;;;;;5048327;28;20601;-58
2023/10/25 09:00:12;;;;;;;7.10;2.90;;;11.70;99.90;;;;;;5050026;28;20028;-58
2023/10/25 09:02:38;;;;;;;5.13;2.95;;;11.90;99.90;;;;;;5049252;28;20501;-58
2023/10/25 09:05:09;;;;;;;5.40;3.15;;;12.10;99.90;;;;;;5049565;28;20429;-58
2023/10/25 09:07:36;;;;;;;7.95;3.08;;;12.20;99.90;;;;;;5049957;28;20051;-58
2023/10/25 09:10:03;;;;;;;4.05;2.20;;;12.40;99.90;;;;;;5049836;28;20033;-58
2023/10/25 09:12:30;;;;;;;3.70;2.30;;;13.10;99.90;;;;;;5048838;28;20108;-57
2023/10/25 09:14:56;;;;;;;3.15;1.73;;;14.60;99.90;;;;;;5049592;28;20032;-59
2023/10/25 09:17:21;;;;;;;3.42;1.80;;;16.80;99.90;;;;;;5049522;28;20304;-58
2023/10/25 09:19:49;;;;;;;2.03;1.20;;;18.70;99.90;;;;;;5049778;28;20031;-59
2023/10/25 09:22:27;;;;;;;3.50;1.45;;;20.20;99.90;;;;;;5049581;28;20104;-59
2023/10/25 09:25:01;;;;;;;5.43;1.80;;;21.60;94.80;;;;;;5049382;28;20031;-59
2023/10/25 09:27:28;;;;;;;4.63;1.38;;;22.60;91.20;;;;;;5049394;28;20036;-58
2023/10/25 09:29:54;;;;;;;7.38;1.50;;;23.20;90.50;;;;;;5048345;28;20076;-57
2023/10/25 09:32:21;;;;;;;3.38;1.60;;;23.80;86.40;;;;;;5048920;28;20040;-57
2023/10/25 09:34:48;;;;;;;2.78;1.30;;;23.70;84.60;;;;;;5049278;28;20025;-57
2023/10/25 09:37:14;;;;;;;4.47;1.30;;;24.10;83.40;;;;;;5048909;28;20715;-57
2023/10/25 09:39:40;;;;;;;4.20;1.45;;;24.80;80.20;;;;;;5055373;28;20024;-57
2023/10/25 09:42:10;;;;;;;5.72;1.92;;;25.20;80.40;;;;;;5049374;28;20075;-57
2023/10/25 09:44:40;;;;;;;5.70;1.85;;;25.00;77.70;;;;;;5048896;28;20020;-60
2023/10/25 09:47:10;;;;;;;4.93;1.70;;;25.30;77.50;;;;;;5048975;28;20033;-57
2023/10/25 09:49:41;;;;;;;5.40;2.00;;;26.20;77.10;;;;;;5048783;28;20013;-58
2023/10/25 09:52:07;;;;;;;4.97;1.58;;;27.00;74.20;;;;;;5041916;28;20698;-58
2023/10/25 09:54:34;;;;;;;4.47;1.80;;;27.30;74.90;;;;;;5042425;28;20129;-58
2023/10/25 09:57:02;;;;;;;4.32;2.00;;;27.50;70.20;;;;;;5040417;28;20482;-58
2023/10/25 09:59:31;;;;;;;4.63;1.40;;;27.60;70.20;;;;;;5041810;28;20422;-58
2023/10/25 10:01:58;;;;;;;4.18;1.65;;;28.10;69.90;;;;;;5038556;28;20021;-60
2023/10/25 10:04:39;;;;;;;5.30;1.40;;;27.80;68.60;;;;;;5044885;28;20052;-58
2023/10/25 10:07:34;;;;;;;2.67;1.40;;;27.80;67.30;;;;;;5042291;28;20418;-58
2023/10/25 10:10:17;;;;;;;4.30;1.55;;;27.00;67.50;;;;;;5048986;28;20057;-58
2023/10/25 10:12:43;;;;;;;2.60;1.38;;;27.40;67.30;;;;;;5049224;28;20462;-57
2023/10/25 10:15:12;;;;;;;6.18;1.70;;;26.80;68.20;;;;;;5048995;28;20056;-57
2023/10/25 10:17:42;;;;;;;2.90;1.85;;;26.90;68.00;;;;;;5048942;28;20502;-57
2023/10/25 10:20:20;;;;;;;4.88;1.50;;;26.60;70.50;;;;;;5049054;28;20037;-57
2023/10/25 10:23:06;;;;;;;6.30;2.05;;;26.50;68.80;;;;;;5050912;28;20100;-57
2023/10/25 10:25:45;;;;;;;3.22;1.70;;;26.90;69.30;;;;;;5049232;28;20029;-57
2023/10/25 10:28:11;;;;;;;6.45;1.60;;;27.70;67.20;;;;;;5043135;28;20017;-57
2023/10/25 10:30:39;;;;;;;3.08;1.50;;;28.30;67.10;;;;;;5044614;28;20024;-57
2023/10/25 10:33:15;;;;;;;4.07;1.73;;;28.10;64.90;;;;;;5046127;28;20120;-57
2023/10/25 10:35:48;;;;;;;5.30;1.63;;;27.80;66.90;;;;;;5043772;28;20449;-57
2023/10/25 10:38:13;;;;;;;3.33;1.40;;;27.50;68.10;;;;;;5042959;28;20030;-57
2023/10/25 10:40:39;;;;;;;6.38;1.45;;;27.40;67.60;;;;;;5047872;28;20047;-57
2023/10/25 10:43:06;;;;;;;6.65;2.00;;;27.00;67.40;;;;;;5051870;28;20025;-57
2023/10/25 10:45:32;;;;;;;6.15;1.65;;;26.10;69.10;;;;;;5051844;28;20428;-57
2023/10/25 10:48:20;;;;;;;5.35;2.17;;;25.50;69.40;;;;;;5042703;28;20029;-56
2023/10/25 10:50:46;;;;;;;6.13;2.17;;;24.90;68.60;;;;;;5044587;28;20052;-57
2023/10/25 10:53:12;;;;;;;10.05;4.63;;;24.00;71.60;;;;;;5042688;28;20037;-57
2023/10/25 10:55:37;;;;;;;7.20;2.60;;;24.00;70.90;;;;;;5042756;28;20026;-57
2023/10/25 10:58:03;;;;;;;5.53;2.70;;;24.30;70.80;;;;;;5039320;28;20138;-57
2023/10/25 11:00:30;;;;;;;5.80;1.77;;;24.20;70.60;;;;;;5040509;28;20024;-57
2023/10/25 11:02:56;;;;;;;12.30;4.82;;;24.30;71.90;;;;;;5038757;28;20053;-57
2023/10/25 11:05:22;;;;;;;3.65;2.15;;;25.10;71.10;;;;;;5038132;28;20732;-57
2023/10/25 11:07:49;;;;;;;4.53;2.20;;;25.40;71.00;;;;;;5035722;28;20087;-57
2023/10/25 11:10:16;;;;;;;5.50;1.85;;;25.50;69.50;;;;;;5040942;28;20390;-57
2023/10/25 11:12:43;;;;;;;7.10;3.15;;;25.80;68.40;;;;;;5048100;28;20116;-57
2023/10/25 11:15:10;;;;;;;4.85;2.58;;;25.30;68.40;;;;;;5052669;28;20203;-57
2023/10/25 11:17:36;;;;;;;6.10;3.38;;;25.60;67.60;;;;;;5052072;28;20099;-57
2023/10/25 11:20:02;;;;;;;3.38;1.30;;;26.40;67.60;;;;;;5052167;28;20555;-57
2023/10/25 11:22:30;;;;;;;5.63;3.10;;;27.60;66.20;;;;;;5052043;28;20029;-57
2023/10/25 11:24:57;;;;;;;5.47;2.08;;;28.20;62.70;;;;;;5051932;28;20142;-57
2023/10/25 11:27:31;;;;;;;5.45;2.35;;;26.60;63.00;;;;;;5050777;28;20357;-57
2023/10/25 11:29:58;;;;;;;4.82;1.88;;;26.10;65.50;;;;;;5051353;28;20029;-57
2023/10/25 11:32:23;;;;;;;7.25;1.45;;;25.60;65.10;;;;;;5051259;28;20052;-57
2023/10/25 11:34:54;;;;;;;3.35;1.30;;;25.50;66.60;;;;;;5051073;28;20337;-57
2023/10/25 11:37:20;;;;;;;2.42;1.13;;;25.20;64.50;;;;;;5051331;28;20033;-57
2023/10/25 11:40:01;;;;;;;3.38;1.55;;;26.10;65.90;;;;;;5051162;28;20035;-57
2023/10/25 11:42:29;;;;;;;6.53;1.13;;;26.60;61.80;;;;;;5051313;28;20051;-57
2023/10/25 11:44:55;;;;;;;1.42;0.80;;;26.60;64.00;;;;;;5050972;28;20475;-57
2023/10/25 11:47:21;;;;;;;4.72;1.45;;;27.00;60.70;;;;;;5049848;28;20108;-59
2023/10/25 11:49:58;;;;;;;3.40;1.38;;;27.40;61.70;;;;;;5051407;28;20070;-58
2023/10/25 11:52:26;;;;;;;3.70;2.40;;;28.20;61.80;;;;;;5051335;28;20080;-58
2023/10/25 11:54:55;;;;;;;3.05;1.33;;;28.20;59.50;;;;;;5049417;28;20028;-58
2023/10/25 11:57:25;;;;;;;2.65;1.00;;;28.20;61.50;;;;;;5049742;28;20029;-58
2023/10/25 11:59:51;;;;;;;4.00;1.25;;;28.30;62.90;;;;;;5049963;28;20029;-58
2023/10/25 12:02:21;;;;;;;3.95;1.48;;;28.80;62.50;;;;;;5051559;28;20053;-58
2023/10/25 12:04:48;;;;;;;1.90;1.10;;;28.70;62.40;;;;;;5051256;28;20032;-58
2023/10/25 12:07:14;;;;;;;1.73;1.08;;;28.50;64.00;;;;;;5051273;28;20033;-58
2023/10/25 12:09:41;;;;;;;2.92;1.20;;;28.70;60.90;;;;;;5051345;28;20150;-58
2023/10/25 12:12:07;;;;;;;4.53;1.90;;;28.10;62.80;;;;;;5051706;28;20423;-58
2023/10/25 12:14:32;;;;;;;2.78;1.20;;;27.40;65.00;;;;;;5043080;28;20430;-58
2023/10/25 12:16:58;;;;;;;3.00;1.30;;;27.00;65.50;;;;;;5044587;28;20029;-57
2023/10/25 12:19:24;;;;;;;3.20;1.13;;;26.40;65.90;;;;;;5040554;28;20017;-58
2023/10/25 12:21:55;;;;;;;5.28;1.50;;;26.00;67.00;;;;;;5037642;28;20159;-58
2023/10/25 12:24:22;;;;;;;4.25;1.02;;;25.90;66.30;;;;;;5045091;28;20112;-58
2023/10/25 12:26:47;;;;;;;4.20;1.35;;;25.70;66.50;;;;;;5049271;28;20482;-58
2023/10/25 12:29:13;;;;;;;5.25;1.13;;;24.70;69.10;;;;;;5050912;28;20040;-57
2023/10/25 12:31:38;;;;;;;3.88;1.08;;;24.60;68.90;;;;;;5051012;28;20033;-57
2023/10/25 12:34:04;;;;;;;2.30;1.27;;;24.20;70.00;;;;;;5050957;28;20533;-57
2023/10/25 12:36:29;;;;;;;6.88;1.02;;;23.60;71.30;;;;;;5050349;28;20029;-57
2023/10/25 12:38:55;;;;;;;6.47;1.75;;;22.90;71.90;;;;;;5048713;28;20571;-57
2023/10/25 12:41:20;;;;;;;4.15;1.55;;;22.60;72.90;;;;;;5042969;28;20033;-57
2023/10/25 12:43:47;;;;;;;4.10;1.30;;;22.30;75.20;;;;;;5044414;28;20057;-57